Terminal Aerodrome Forecast
Issued by NWS Rapid City, SD

Home | Current Version | Previous Version | Text Only | Print | Product List | Glossary Off
Versions: 1 2 3 4 5 6 7 8 9 10 11 12 13 14 15 16 17 18 19 20

000
FTUS43 KUNR 281600 AAA
TAFRAP
TAF AMD
KRAP 281613Z 2816/2912 VRB05KT P6SM SKC
     FM281800 33014G22KT P6SM SCT100
     FM290000 VRB04KT P6SM SCT100=

USA.gov is the U.S. government's official web portal to all federal, state and local government web resources and services.